Meteo Giornale » Osservazioni meteo Italia » Pescara

ore: 11:50 - Osservazioni Meteo Pescara
Lat. 42° 26' N Lon. 14° 12' E Alt. 10 metri s.l.m.

poco_nuvoloso Europe/Rome

28 °C

Poco Nuvoloso

Temp. 24 Ore

21 °C

37 °C

Nord-Est

20.3 Km/h

Dew point 19 °C

Umidità 58 %

Visibilità  10 Km

Il sole sorge alle ore 05:47

Il sole tramonta alle ore 20:31

Data e Ora Cielo e Fenomeni T °C DP °C Um. % Pres. hPa Vis. km Vento km/h
Oggi h: 11:50 poco_nuvoloso Poco Nuvoloso 28 19 58 1004 10 NE 20.3
Oggi h: 10:50 poco_nuvoloso Poco Nuvoloso 26 18 61 1004 10 N/NE 16.7
Oggi h: 09:50 nuvoloso Nuvoloso 28 18 54 1004 10 N/NE 14.8
Oggi h: 08:50 sereno Sereno 28 16 48 1005 10 E 7.4
Oggi h: 07:50 sereno Sereno 27 12 39 1005 10 NO 13
Oggi h: 06:50 sereno Sereno 22 14 60 1004 10 N 3.7
Oggi h: 05:50 sereno Sereno 21 13 60 1003 10 N 5.5
Oggi h: 04:50 sereno Sereno 22 13 56 1003 10 N 1.8
Oggi h: 03:50 sereno Sereno 25 13 47 1003 10 S/SO 9.3
Oggi h: 02:50 poco_nuvoloso Poco Nuvoloso 26 12 41 1003 10 O/SO 9.3
Oggi h: 01:50 molto_nuvoloso Molto Nuvoloso 26 14 47 1004 10 O/SO 7.4
Oggi h: 00:50 molto_nuvoloso Molto Nuvoloso 27 14 44 1003 10 SO 16.7
Ieri h: 23:50 poco_nuvoloso Poco Nuvoloso 28 14 42 1004 10 SO 7.4
Ieri h: 22:50 sereno Sereno 28 17 51 1003 10 N 5.5
Ieri h: 21:50 poco_nuvoloso Poco Nuvoloso 29 19 54 1003 10 N 5.5
Ieri h: 20:50 nuvoloso Nuvoloso 29 21 62 1002 10 E/NE 9.3
Ieri h: 19:50 nuvoloso Nuvoloso 30 20 55 1002 10 N 11.1
Ieri h: 18:50 sereno Sereno 35 11 23 1001 10 O 18.5
Ieri h: 17:50 poco_nuvoloso Poco Nuvoloso 36 13 25 1001 10 SO 33.3
Ieri h: 16:50 poco_nuvoloso Poco Nuvoloso 37 13 23 1000 10 SO 33.3
Ieri h: 15:50 sereno Sereno 36 13 25 1001 10 SO 31.5
Ieri h: 14:50 poco_nuvoloso Poco Nuvoloso 37 14 25 1002 10 SO 27.8
Ieri h: 13:50 poco_nuvoloso Poco Nuvoloso 37 12 22 1003 10 SO 31.5
Ieri h: 12:50 poco_nuvoloso Poco Nuvoloso 36 17 32 1004 10 E/SE 14.8